Time;durP1;ratioP1;P1;durP2;ratioP2;P2;SDS_P1;SDS_P2;PMS_P1;PMS_P2;Temp;Humidity;BMP_temperature;BMP_pressure;BME280_temperature;BME280_humidity;BME280_pressure;Samples;Min_cycle;Max_cycle;Signal;HPM_P1;HPM_P2
2022/10/12 00:01:25;;;;;;;3.22;1.83;;;20.30;69.00;;;;;;4977980;28;45383;-71
2022/10/12 00:03:51;;;;;;;3.60;1.70;;;20.30;69.10;;;;;;4979690;28;48030;-71
2022/10/12 00:06:20;;;;;;;2.70;1.70;;;20.30;68.90;;;;;;4981649;28;45397;-73
2022/10/12 00:08:50;;;;;;;3.83;2.00;;;20.30;68.90;;;;;;4976167;28;45465;-71
2022/10/12 00:11:21;;;;;;;3.25;1.90;;;20.30;69.10;;;;;;4980214;28;45517;-71
2022/10/12 00:13:48;;;;;;;4.22;1.80;;;20.30;69.20;;;;;;4981713;28;47383;-71
2022/10/12 00:16:17;;;;;;;4.35;2.00;;;20.30;69.50;;;;;;4982286;28;45779;-72
2022/10/12 00:18:44;;;;;;;3.20;1.90;;;20.30;69.60;;;;;;4969340;28;45274;-72
2022/10/12 00:21:13;;;;;;;2.20;1.60;;;20.30;69.60;;;;;;4980801;28;45414;-72
2022/10/12 00:23:41;;;;;;;3.85;1.92;;;20.30;69.40;;;;;;4975200;28;45286;-71
2022/10/12 00:26:12;;;;;;;3.35;1.80;;;20.30;69.50;;;;;;4980287;28;45372;-72
2022/10/12 00:28:40;;;;;;;2.63;1.83;;;20.30;69.50;;;;;;4977288;28;45301;-71
2022/10/12 00:31:08;;;;;;;2.90;1.70;;;20.30;69.70;;;;;;4983677;28;45407;-71
2022/10/12 00:33:36;;;;;;;3.35;1.90;;;20.30;69.60;;;;;;4996429;28;45342;-71
2022/10/12 00:36:11;;;;;;;3.28;1.80;;;20.30;69.60;;;;;;4979768;28;45533;-71
2022/10/12 00:38:38;;;;;;;3.10;2.00;;;20.30;69.60;;;;;;4969166;28;45371;-71
2022/10/12 00:41:05;;;;;;;2.33;1.70;;;20.30;69.70;;;;;;4971486;28;45584;-71
2022/10/12 00:43:34;;;;;;;3.10;1.85;;;20.30;69.50;;;;;;4977127;28;48050;-71
2022/10/12 00:46:05;;;;;;;2.70;1.60;;;20.30;69.30;;;;;;4971894;28;45436;-71
2022/10/12 00:48:32;;;;;;;3.85;1.70;;;20.30;69.10;;;;;;4967163;28;45359;-71
2022/10/12 00:51:01;;;;;;;2.97;1.73;;;20.30;69.10;;;;;;4969635;28;45318;-71
2022/10/12 00:53:33;;;;;;;2.15;1.60;;;20.30;69.20;;;;;;4973990;28;45478;-72
2022/10/12 00:56:02;;;;;;;5.63;1.80;;;20.30;68.90;;;;;;4983215;28;45791;-71
2022/10/12 00:58:30;;;;;;;2.53;1.60;;;20.30;68.90;;;;;;4973704;28;45397;-71
2022/10/12 01:00:57;;;;;;;4.80;1.95;;;20.30;68.90;;;;;;4980567;28;45477;-72
2022/10/12 01:03:25;;;;;;;3.50;1.75;;;20.20;68.60;;;;;;4980631;28;46588;-71
2022/10/12 01:05:52;;;;;;;2.70;1.55;;;20.20;68.60;;;;;;4975736;28;45626;-70
2022/10/12 01:08:19;;;;;;;2.72;1.45;;;20.20;68.60;;;;;;4979006;28;45554;-70
2022/10/12 01:10:46;;;;;;;2.38;1.63;;;20.20;68.80;;;;;;4976815;28;45456;-71
2022/10/12 01:13:13;;;;;;;4.00;2.10;;;20.20;68.90;;;;;;4976713;28;47930;-72
2022/10/12 01:15:47;;;;;;;3.35;1.70;;;20.20;69.10;;;;;;4987074;28;45702;-71
2022/10/12 01:18:19;;;;;;;2.65;1.60;;;20.20;69.30;;;;;;4982164;28;45416;-71
2022/10/12 01:20:57;;;;;;;3.20;1.80;;;20.30;69.30;;;;;;4983278;28;45514;-71
2022/10/12 01:24:14;;;;;;;4.25;1.90;;;20.30;69.20;;;;;;4970164;28;46378;-71
2022/10/12 01:27:17;;;;;;;2.67;1.70;;;20.30;70.20;;;;;;4957441;28;45291;-71
2022/10/12 01:30:14;;;;;;;2.67;1.38;;;20.30;69.10;;;;;;4972722;28;45468;-72
2022/10/12 01:32:54;;;;;;;6.90;2.08;;;20.30;69.00;;;;;;4970969;28;45365;-71
2022/10/12 01:35:27;;;;;;;6.05;2.60;;;20.30;69.10;;;;;;4972158;28;45255;-70
2022/10/12 01:38:01;;;;;;;8.35;2.05;;;20.40;69.70;;;;;;4973731;28;45219;-70
2022/10/12 01:40:34;;;;;;;4.18;1.75;;;20.40;69.30;;;;;;4968863;28;45374;-71
2022/10/12 01:43:02;;;;;;;5.47;2.30;;;20.40;69.10;;;;;;4975655;28;45349;-70
2022/10/12 01:45:30;;;;;;;4.10;1.70;;;20.40;68.70;;;;;;4973374;28;46227;-71
2022/10/12 01:47:57;;;;;;;10.55;2.55;;;20.30;68.50;;;;;;4968254;28;45204;-73
2022/10/12 01:50:31;;;;;;;6.40;2.25;;;20.40;69.40;;;;;;4981105;28;45291;-74
2022/10/12 01:53:07;;;;;;;8.15;2.13;;;20.40;69.20;;;;;;4975829;28;45471;-74
2022/10/12 01:55:39;;;;;;;9.88;2.10;;;20.40;70.30;;;;;;4974366;28;45331;-73
2022/10/12 01:58:31;;;;;;;4.80;1.50;;;20.40;71.00;;;;;;4973057;28;45200;-73
2022/10/12 02:01:13;;;;;;;38.05;3.88;;;20.30;70.80;;;;;;4990300;28;46129;-76
2022/10/12 02:24:55;;;;;;;6.30;1.80;;;20.30;71.00;;;;;;5008300;28;45182;-80
2022/10/12 02:37:28;;;;;;;3.40;1.80;;;20.40;70.50;;;;;;4945229;28;45338;-75
2022/10/12 07:57:30;;;;;;;8.38;1.90;;;20.80;65.90;;;;;;4967115;28;45520;-75
2022/10/12 08:03:12;;;;;;;2.08;1.27;;;20.50;65.70;;;;;;4947412;28;45343;-75
2022/10/12 08:06:10;;;;;;;4.53;1.33;;;20.10;67.40;;;;;;4968137;28;45341;-75
2022/10/12 08:08:39;;;;;;;3.03;1.20;;;20.20;68.00;;;;;;4967479;28;48622;-75
2022/10/12 08:58:32;;;;;;;1.13;0.90;;;21.00;65.90;;;;;;4925261;28;45267;-76
2022/10/12 09:28:49;;;;;;;2.85;1.50;;;20.20;65.70;;;;;;4876013;28;45661;-75
2022/10/12 10:05:42;;;;;;;3.10;1.40;;;20.30;66.00;;;;;;4923439;28;45288;-76
2022/10/12 10:08:19;;;;;;;5.10;1.50;;;20.30;66.10;;;;;;4922549;28;47345;-73
2022/10/12 10:10:50;;;;;;;3.63;1.50;;;20.30;67.30;;;;;;4982071;28;45415;-73
2022/10/12 10:16:54;;;;;;;2.88;1.65;;;20.40;72.40;;;;;;4986137;28;45302;-76
2022/10/12 10:19:32;;;;;;;4.45;1.90;;;20.30;71.90;;;;;;4988881;28;45640;-76
2022/10/12 10:32:22;;;;;;;6.13;1.75;;;20.70;72.60;;;;;;4985665;28;45686;-75
2022/10/12 10:35:01;;;;;;;3.42;1.27;;;20.70;72.90;;;;;;4989059;28;45153;-75
2022/10/12 10:37:35;;;;;;;3.15;1.58;;;21.80;74.80;;;;;;4988638;28;45220;-75
2022/10/12 10:40:05;;;;;;;2.40;1.30;;;19.30;75.70;;;;;;4989254;28;45515;-75
2022/10/12 10:42:33;;;;;;;3.20;1.38;;;21.80;76.20;;;;;;4988532;28;47305;-76
2022/10/12 10:45:03;;;;;;;2.75;1.23;;;20.30;74.30;;;;;;4988423;28;45319;-75
2022/10/12 10:47:33;;;;;;;2.83;1.40;;;20.20;73.80;;;;;;4988664;28;45344;-74
2022/10/12 10:50:03;;;;;;;4.20;2.05;;;20.30;74.10;;;;;;4988650;28;45338;-75
2022/10/12 10:52:33;;;;;;;9.55;1.40;;;20.30;74.10;;;;;;4989880;28;48045;-75
2022/10/12 10:55:23;;;;;;;3.92;1.40;;;20.30;74.40;;;;;;4987917;28;46907;-74
2022/10/12 10:57:57;;;;;;;2.97;1.48;;;20.20;74.50;;;;;;4988502;28;45374;-74
2022/10/12 11:00:24;;;;;;;3.25;1.48;;;20.20;74.70;;;;;;4987612;28;45185;-74
2022/10/12 11:02:53;;;;;;;2.78;1.15;;;20.20;74.70;;;;;;4968593;28;46853;-75
2022/10/12 11:05:25;;;;;;;5.30;1.60;;;20.20;74.90;;;;;;4968376;28;45263;-74
2022/10/12 11:07:55;;;;;;;1.95;1.23;;;20.20;75.20;;;;;;4968784;28;45256;-74
2022/10/12 11:10:28;;;;;;;2.70;1.08;;;20.20;75.40;;;;;;4968625;28;45379;-74
2022/10/12 11:13:01;;;;;;;3.63;1.10;;;20.20;75.70;;;;;;4967776;28;48350;-74
2022/10/12 11:15:34;;;;;;;4.90;1.98;;;20.20;75.40;;;;;;4968297;28;45074;-74
2022/10/12 11:18:11;;;;;;;2.20;1.30;;;20.20;75.70;;;;;;4968218;28;45244;-74
2022/10/12 11:20:48;;;;;;;2.75;1.05;;;20.20;75.90;;;;;;4968565;28;45139;-74
2022/10/12 11:23:33;;;;;;;1.80;1.15;;;20.30;76.30;;;;;;4977480;28;45503;-74
2022/10/12 11:26:08;;;;;;;1.13;0.90;;;20.30;77.50;;;;;;4987726;28;45081;-74
2022/10/12 11:29:04;;;;;;;2.95;1.30;;;20.30;76.50;;;;;;4987717;28;45356;-74
2022/10/12 11:31:36;;;;;;;2.90;1.17;;;20.30;76.70;;;;;;4987406;28;45496;-74
2022/10/12 11:34:06;;;;;;;2.13;1.20;;;20.30;76.70;;;;;;4987237;28;48244;-74
2022/10/12 11:36:37;;;;;;;1.27;0.95;;;20.30;76.90;;;;;;4987416;28;45353;-74
2022/10/12 11:39:07;;;;;;;2.30;1.20;;;20.30;76.80;;;;;;4987238;28;45179;-73
2022/10/12 11:41:44;;;;;;;1.80;1.02;;;20.30;77.10;;;;;;4987388;28;45235;-74
2022/10/12 11:44:15;;;;;;;1.85;0.98;;;20.30;77.20;;;;;;4988770;28;47223;-74
2022/10/12 11:46:46;;;;;;;3.28;1.00;;;20.30;77.10;;;;;;4987039;28;45338;-73
2022/10/12 11:49:19;;;;;;;1.80;0.90;;;20.30;76.90;;;;;;4986966;28;45282;-73
2022/10/12 11:51:47;;;;;;;1.52;0.80;;;20.30;77.30;;;;;;4987218;28;45121;-74
2022/10/12 11:54:26;;;;;;;1.42;0.82;;;20.30;77.30;;;;;;4968319;28;46537;-73
2022/10/12 11:56:58;;;;;;;1.83;0.70;;;20.30;77.00;;;;;;4981898;28;46110;-73
2022/10/12 11:59:44;;;;;;;1.50;0.90;;;20.30;77.70;;;;;;4986746;28;45332;-73
2022/10/12 12:02:18;;;;;;;2.13;1.00;;;20.20;77.80;;;;;;4986287;28;45458;-73
2022/10/12 12:04:47;;;;;;;1.50;0.82;;;20.20;79.10;;;;;;4986667;28;45561;-74
2022/10/12 12:07:46;;;;;;;2.17;0.80;;;20.20;78.40;;;;;;4986112;28;45275;-73
2022/10/12 12:10:52;;;;;;;0.85;0.75;;;20.20;78.40;;;;;;4986600;28;45355;-73
2022/10/12 12:13:25;;;;;;;1.85;0.93;;;20.20;78.40;;;;;;4986118;28;45410;-74
2022/10/12 12:16:30;;;;;;;2.50;1.00;;;20.20;78.40;;;;;;4986240;28;46597;-73
2022/10/12 12:19:18;;;;;;;1.40;0.85;;;20.20;78.40;;;;;;4986250;28;45330;-73
2022/10/12 12:22:33;;;;;;;0.60;0.60;;;20.20;78.40;;;;;;4986388;28;45144;-73
2022/10/12 12:25:13;;;;;;;1.25;0.70;;;20.30;78.80;;;;;;4986612;28;45334;-74
2022/10/12 12:27:44;;;;;;;1.27;0.80;;;20.30;78.90;;;;;;4986261;28;48529;-73
2022/10/12 12:30:30;;;;;;;1.52;0.70;;;20.30;79.10;;;;;;4986559;28;45239;-73
2022/10/12 12:33:29;;;;;;;1.58;0.90;;;20.30;79.40;;;;;;4970964;28;45326;-73
2022/10/12 12:36:00;;;;;;;1.33;0.80;;;20.30;79.30;;;;;;4983516;28;45473;-73
2022/10/12 12:38:30;;;;;;;2.20;0.80;;;20.30;79.10;;;;;;4986360;28;47733;-73
2022/10/12 12:41:03;;;;;;;1.38;0.90;;;20.30;79.80;;;;;;4986611;28;45220;-73
2022/10/12 12:43:59;;;;;;;1.70;0.77;;;20.30;79.80;;;;;;4986385;28;45248;-73
2022/10/12 12:47:08;;;;;;;0.88;0.70;;;20.30;79.80;;;;;;4986748;28;45185;-73
2022/10/12 12:49:46;;;;;;;3.42;0.80;;;20.30;79.80;;;;;;4985977;28;46468;-73
2022/10/12 12:52:19;;;;;;;0.70;0.63;;;20.30;79.60;;;;;;4986045;28;45308;-73
2022/10/12 12:55:15;;;;;;;1.50;0.77;;;20.30;79.80;;;;;;4986080;28;45248;-73
2022/10/12 12:57:55;;;;;;;0.73;0.55;;;20.30;79.80;;;;;;4966993;28;45175;-73
2022/10/12 13:00:24;;;;;;;1.65;0.90;;;20.30;79.70;;;;;;4966617;28;48641;-74
2022/10/12 13:03:27;;;;;;;1.30;0.80;;;20.20;80.50;;;;;;4984752;28;45600;-73
2022/10/12 13:06:57;;;;;;;1.15;0.80;;;20.20;80.20;;;;;;4985093;28;45136;-73
2022/10/12 13:09:47;;;;;;;2.47;0.70;;;20.20;80.20;;;;;;4922825;28;45240;-74
2022/10/12 13:12:35;;;;;;;2.03;0.77;;;20.20;80.50;;;;;;4921674;28;47779;-74
2022/10/12 13:15:22;;;;;;;0.98;0.60;;;20.20;80.30;;;;;;4982133;28;45153;-74
2022/10/12 13:18:07;;;;;;;1.60;0.90;;;20.20;80.30;;;;;;4972468;28;45522;-74
2022/10/12 13:20:37;;;;;;;1.63;0.63;;;20.20;80.70;;;;;;4984934;28;45234;-75
2022/10/12 13:23:08;;;;;;;1.88;0.93;;;20.20;80.70;;;;;;4984994;28;46827;-75
2022/10/12 13:25:47;;;;;;;0.88;0.60;;;20.30;80.60;;;;;;4985035;28;45997;-75
2022/10/12 13:31:41;;;;;;;2.03;0.80;;;20.30;81.00;;;;;;4982059;28;45178;-75
2022/10/12 13:34:15;;;;;;;1.20;0.70;;;20.30;81.00;;;;;;4981599;28;46062;-75
2022/10/12 13:36:51;;;;;;;0.98;0.65;;;20.30;81.30;;;;;;4984779;28;46296;-75
2022/10/12 13:42:39;;;;;;;1.98;0.70;;;20.30;81.50;;;;;;4981938;28;45094;-76
2022/10/12 13:48:29;;;;;;;1.40;0.75;;;20.30;81.50;;;;;;4985626;28;45129;-76
2022/10/12 13:51:02;;;;;;;1.48;0.60;;;20.30;81.40;;;;;;4988740;28;45174;-76
2022/10/12 13:56:54;;;;;;;1.50;0.70;;;20.30;81.40;;;;;;4985383;28;45228;-76
2022/10/12 13:59:24;;;;;;;1.45;0.80;;;20.30;81.40;;;;;;4988411;28;45705;-76
2022/10/12 14:01:55;;;;;;;1.05;0.80;;;20.30;81.40;;;;;;4949704;28;1118063;-76
2022/10/12 14:04:22;;;;;;;1.73;0.70;;;20.30;81.20;;;;;;4989442;28;45418;-76
2022/10/12 14:06:55;;;;;;;2.58;0.90;;;20.30;81.40;;;;;;4988774;28;48322;-76
2022/10/12 14:09:25;;;;;;;1.60;0.80;;;20.30;81.40;;;;;;4989314;28;45374;-76
2022/10/12 14:11:54;;;;;;;1.08;0.73;;;20.30;81.50;;;;;;4989146;28;45161;-76
2022/10/12 14:17:44;;;;;;;1.10;0.70;;;20.30;81.60;;;;;;4986311;28;45596;-76
2022/10/12 14:20:18;;;;;;;1.48;0.70;;;20.30;81.50;;;;;;4990681;28;46199;-76
2022/10/12 14:26:22;;;;;;;0.90;0.55;;;20.30;82.50;;;;;;4986119;28;45327;-76
2022/10/12 14:32:36;;;;;;;2.08;0.73;;;20.30;82.60;;;;;;4985730;28;45177;-76
2022/10/12 14:35:11;;;;;;;0.82;0.50;;;20.30;82.80;;;;;;4988574;28;45164;-74
2022/10/12 14:37:38;;;;;;;5.93;1.10;;;20.30;83.00;;;;;;4988893;28;45059;-76
2022/10/12 14:43:28;;;;;;;3.97;1.23;;;20.30;84.10;;;;;;4985764;28;45264;-75
2022/10/12 14:45:55;;;;;;;2.45;0.70;;;20.30;83.40;;;;;;4988726;28;45247;-76
2022/10/12 14:48:22;;;;;;;2.03;0.77;;;20.30;83.10;;;;;;4989027;28;45210;-76
2022/10/12 14:50:49;;;;;;;4.22;0.60;;;20.30;83.20;;;;;;4988387;28;46934;-76
2022/10/12 14:53:16;;;;;;;1.23;0.70;;;20.30;83.00;;;;;;4988448;28;45252;-76
2022/10/12 14:55:43;;;;;;;1.77;0.80;;;20.30;83.00;;;;;;4988435;28;45077;-76
2022/10/12 14:58:14;;;;;;;5.10;0.80;;;20.30;83.10;;;;;;4987975;28;45228;-76
2022/10/12 15:00:43;;;;;;;4.43;0.82;;;20.30;82.70;;;;;;4987833;28;46660;-76
2022/10/12 15:03:10;;;;;;;1.30;1.10;;;20.30;82.90;;;;;;4988306;28;45245;-76
2022/10/12 15:05:37;;;;;;;1.13;0.77;;;20.30;82.90;;;;;;4988282;28;45343;-76
2022/10/12 15:08:07;;;;;;;2.00;0.93;;;20.30;82.60;;;;;;4988333;28;45197;-75
2022/10/12 15:10:34;;;;;;;2.13;0.80;;;20.30;82.90;;;;;;4989817;28;46826;-76
2022/10/12 15:13:01;;;;;;;1.83;0.57;;;20.30;82.70;;;;;;4987878;28;45136;-75
2022/10/12 15:15:36;;;;;;;1.63;0.70;;;20.30;83.00;;;;;;4988238;28;45304;-76
2022/10/12 15:18:04;;;;;;;1.92;0.82;;;20.30;83.30;;;;;;4987958;28;45177;-75
2022/10/12 15:20:32;;;;;;;1.85;0.90;;;20.30;83.20;;;;;;4987887;28;45236;-76
2022/10/12 15:23:00;;;;;;;1.50;0.70;;;20.30;83.60;;;;;;4987971;28;45134;-76
2022/10/12 15:25:36;;;;;;;0.88;0.70;;;20.30;83.50;;;;;;4987831;28;45203;-76
2022/10/12 15:28:03;;;;;;;2.08;0.90;;;20.30;83.60;;;;;;4987880;28;45312;-75
2022/10/12 15:30:29;;;;;;;1.17;0.80;;;20.30;83.50;;;;;;4996051;28;48501;-76
2022/10/12 15:32:56;;;;;;;1.00;0.70;;;20.30;83.30;;;;;;5007362;28;45240;-75
2022/10/12 15:35:26;;;;;;;1.42;1.10;;;20.30;83.80;;;;;;5007760;28;45121;-75
2022/10/12 15:37:55;;;;;;;2.00;0.90;;;20.30;83.90;;;;;;5007484;28;45675;-75
2022/10/12 15:40:22;;;;;;;2.58;0.73;;;20.30;84.10;;;;;;5007176;28;45602;-75
2022/10/12 15:42:49;;;;;;;1.40;0.70;;;20.30;84.20;;;;;;5007021;28;45157;-75
2022/10/12 15:45:19;;;;;;;3.13;0.90;;;20.30;84.00;;;;;;5007477;28;45128;-75
2022/10/12 15:47:47;;;;;;;2.08;0.90;;;20.30;84.00;;;;;;5008011;28;45173;-75
2022/10/12 16:34:54;;;;;;;2.20;1.42;;;20.30;84.10;;;;;;5006828;28;45138;-77
2022/10/12 17:09:14;;;;;;;2.22;1.40;;;20.80;84.00;;;;;;5006758;28;45412;-78
2022/10/12 19:24:59;;;;;;;2.38;1.20;;;20.90;84.00;;;;;;4835931;28;45426;-76
2022/10/12 19:31:17;;;;;;;1.38;0.90;;;20.20;83.50;;;;;;4987677;28;45102;-76
2022/10/12 19:34:00;;;;;;;1.13;0.98;;;20.40;83.80;;;;;;4953100;28;45387;-76
2022/10/12 19:49:57;;;;;;;1.45;1.15;;;20.90;83.80;;;;;;4888816;29;45574;-76
2022/10/12 19:52:34;;;;;;;1.42;1.15;;;20.30;86.40;;;;;;4889464;29;47944;-76
2022/10/12 19:55:09;;;;;;;2.67;1.50;;;22.20;87.30;;;;;;4937238;28;45435;-76
2022/10/12 19:57:52;;;;;;;1.33;1.20;;;20.30;85.50;;;;;;4987730;28;45106;-76
2022/10/12 20:00:31;;;;;;;2.28;1.10;;;22.00;85.10;;;;;;4988013;28;45303;-76
2022/10/12 20:03:13;;;;;;;1.85;1.30;;;20.70;86.20;;;;;;4987767;28;47269;-76
2022/10/12 20:05:51;;;;;;;2.38;1.40;;;20.20;85.90;;;;;;4987411;28;45207;-76
2022/10/12 20:08:31;;;;;;;2.20;1.25;;;20.20;85.90;;;;;;4987822;28;45422;-76
2022/10/12 20:11:13;;;;;;;2.42;1.10;;;20.60;83.50;;;;;;4987648;28;45376;-76
2022/10/12 20:13:45;;;;;;;2.13;1.30;;;20.20;85.10;;;;;;4987054;28;47339;-76
2022/10/12 20:16:30;;;;;;;2.85;1.23;;;20.10;86.00;;;;;;4986941;28;45306;-76
2022/10/12 20:19:11;;;;;;;2.70;1.30;;;20.10;84.20;;;;;;4987513;28;45125;-76
2022/10/12 20:22:07;;;;;;;2.70;1.42;;;20.50;85.10;;;;;;4987501;28;45166;-76
2022/10/12 20:34:40;;;;;;;1.67;1.10;;;20.10;84.70;;;;;;4986045;28;45411;-76
2022/10/12 20:37:37;;;;;;;2.83;1.60;;;19.70;82.90;;;;;;4986975;28;45708;-76
2022/10/12 20:40:10;;;;;;;2.58;1.60;;;21.80;83.70;;;;;;4986936;28;45843;-76
2022/10/12 20:42:42;;;;;;;1.88;1.50;;;20.20;82.50;;;;;;4986772;28;45313;-76
2022/10/12 20:45:15;;;;;;;1.80;1.50;;;20.10;84.90;;;;;;4987454;28;45478;-76
2022/10/12 20:47:48;;;;;;;2.42;1.40;;;20.50;84.50;;;;;;4986770;28;48170;-76
2022/10/12 20:50:25;;;;;;;2.70;1.58;;;22.10;87.70;;;;;;4987146;28;45200;-76
2022/10/12 20:52:58;;;;;;;2.92;1.52;;;20.10;84.00;;;;;;4986926;28;45189;-76
2022/10/12 20:55:27;;;;;;;2.13;1.40;;;20.30;83.50;;;;;;4985866;28;45294;-76
2022/10/12 20:58:04;;;;;;;1.80;1.50;;;21.90;86.00;;;;;;4986360;28;45433;-76
2022/10/12 21:03:49;;;;;;;2.35;1.45;;;20.20;85.50;;;;;;4985143;28;45579;-76
2022/10/12 21:06:25;;;;;;;3.72;1.63;;;20.50;82.80;;;;;;4986270;28;45393;-77
2022/10/12 21:08:57;;;;;;;2.97;1.73;;;20.30;85.20;;;;;;4986764;28;45249;-76
2022/10/12 21:14:28;;;;;;;2.65;1.60;;;20.70;83.60;;;;;;4982005;28;45377;-76
2022/10/12 21:16:55;;;;;;;4.40;1.67;;;20.30;85.70;;;;;;4987184;28;45172;-76
2022/10/12 21:19:36;;;;;;;3.63;1.60;;;20.20;84.70;;;;;;4986031;28;46948;-76
2022/10/12 21:22:09;;;;;;;1.90;1.48;;;21.90;87.50;;;;;;4986165;28;45146;-76
2022/10/12 21:24:39;;;;;;;2.40;1.50;;;20.50;86.00;;;;;;4986029;28;45159;-76
2022/10/12 21:27:06;;;;;;;2.65;1.85;;;20.10;85.10;;;;;;4986410;28;45396;-76
2022/10/12 21:29:38;;;;;;;3.42;1.67;;;20.60;84.90;;;;;;4986186;28;46797;-76
2022/10/12 21:32:08;;;;;;;1.88;1.50;;;20.10;83.30;;;;;;4986252;28;45188;-76
2022/10/12 21:34:41;;;;;;;2.47;1.60;;;20.20;84.20;;;;;;4985952;28;45157;-76
2022/10/12 21:40:30;;;;;;;2.10;1.67;;;20.20;81.30;;;;;;4983170;28;45909;-76
2022/10/12 21:42:57;;;;;;;2.72;1.60;;;20.20;81.30;;;;;;4985885;28;45406;-76
2022/10/12 21:45:24;;;;;;;2.65;2.00;;;20.10;81.30;;;;;;4986419;28;45291;-76
2022/10/12 21:47:51;;;;;;;3.08;1.73;;;20.10;81.20;;;;;;4986217;28;45243;-76
2022/10/12 21:50:19;;;;;;;4.22;1.80;;;20.10;81.20;;;;;;4985793;28;47489;-76
2022/10/12 21:52:46;;;;;;;2.53;1.90;;;20.10;81.40;;;;;;4985712;28;45235;-76
2022/10/12 21:55:12;;;;;;;2.15;1.70;;;20.10;81.30;;;;;;4985912;28;45200;-76
2022/10/12 21:57:39;;;;;;;4.93;1.83;;;20.10;81.00;;;;;;4986165;28;45066;-76
2022/10/12 22:00:07;;;;;;;3.08;1.80;;;20.10;81.00;;;;;;4985554;28;46448;-76
2022/10/12 22:02:34;;;;;;;3.13;1.83;;;20.10;81.00;;;;;;4985849;28;45317;-76
2022/10/12 22:05:01;;;;;;;2.53;1.80;;;20.10;80.80;;;;;;4986172;28;45334;-76
2022/10/12 22:07:29;;;;;;;3.28;2.00;;;20.20;80.70;;;;;;4990667;28;45128;-76
2022/10/12 22:09:56;;;;;;;3.40;1.90;;;20.20;80.70;;;;;;4988877;28;48632;-76
2022/10/12 22:12:23;;;;;;;3.45;1.90;;;20.20;80.70;;;;;;4989357;28;45155;-76
2022/10/12 22:14:49;;;;;;;3.97;1.92;;;20.20;80.70;;;;;;4988874;28;45240;-76
2022/10/12 22:17:16;;;;;;;2.22;1.70;;;20.20;80.70;;;;;;4989110;28;45594;-76
2022/10/12 22:19:43;;;;;;;4.22;1.80;;;20.20;80.80;;;;;;4988840;28;46938;-76
2022/10/12 22:22:10;;;;;;;4.47;1.73;;;20.20;80.60;;;;;;4989036;28;45065;-76
2022/10/12 22:24:38;;;;;;;2.88;1.75;;;20.20;80.40;;;;;;4988571;28;45279;-76
2022/10/12 22:27:05;;;;;;;2.28;1.73;;;20.20;80.20;;;;;;4988816;28;45458;-76
2022/10/12 22:29:32;;;;;;;2.67;1.70;;;20.20;80.20;;;;;;4988851;28;47943;-76
2022/10/12 22:31:58;;;;;;;2.55;1.70;;;20.10;80.00;;;;;;4989253;28;45352;-76
2022/10/12 22:34:25;;;;;;;2.15;1.60;;;20.20;80.10;;;;;;4988730;28;45128;-76
2022/10/12 22:36:52;;;;;;;3.17;2.03;;;20.10;80.00;;;;;;4988719;28;45474;-76
2022/10/12 22:39:19;;;;;;;2.55;1.90;;;20.10;80.00;;;;;;4988744;28;45420;-76
2022/10/12 22:41:47;;;;;;;4.07;1.88;;;20.20;80.00;;;;;;4988612;28;45329;-76
2022/10/12 22:44:14;;;;;;;3.85;1.85;;;20.10;80.00;;;;;;4988747;28;45322;-76
2022/10/12 22:46:40;;;;;;;2.70;1.73;;;20.10;79.80;;;;;;4988636;28;45212;-76
2022/10/12 22:49:07;;;;;;;2.67;1.65;;;20.10;79.50;;;;;;4988507;28;48312;-76
2022/10/12 22:51:37;;;;;;;2.20;1.70;;;20.10;79.60;;;;;;4988368;28;45150;-75
2022/10/12 22:54:05;;;;;;;4.40;1.65;;;20.10;79.70;;;;;;4988792;28;45234;-76
2022/10/12 22:56:32;;;;;;;2.85;1.80;;;20.10;79.80;;;;;;4988760;28;45125;-76
2022/10/12 22:59:05;;;;;;;4.80;1.80;;;20.10;79.80;;;;;;4991364;28;45530;-76
2022/10/12 23:01:32;;;;;;;2.17;1.50;;;20.10;79.50;;;;;;4988495;28;45190;-76
2022/10/12 23:03:59;;;;;;;3.88;2.22;;;20.10;79.60;;;;;;4988501;28;45106;-76
2022/10/12 23:06:26;;;;;;;3.15;1.55;;;20.10;79.60;;;;;;4988893;28;45164;-76
2022/10/12 23:08:53;;;;;;;2.55;1.77;;;20.10;79.60;;;;;;4988068;28;46969;-76
2022/10/12 23:14:44;;;;;;;4.47;1.98;;;20.10;79.70;;;;;;4985304;28;45184;-76
2022/10/12 23:17:10;;;;;;;2.20;1.75;;;20.20;79.40;;;;;;4988385;28;45212;-76
2022/10/12 23:19:37;;;;;;;2.00;1.50;;;20.10;79.40;;;;;;4987488;28;45256;-76
2022/10/12 23:22:04;;;;;;;4.28;2.08;;;20.10;79.40;;;;;;4987987;28;45175;-76
2022/10/12 23:24:31;;;;;;;2.28;1.60;;;20.10;79.00;;;;;;4987921;28;45215;-75
2022/10/12 23:26:57;;;;;;;2.60;1.75;;;20.10;79.10;;;;;;4988262;28;45401;-76
2022/10/12 23:29:24;;;;;;;2.25;1.75;;;20.10;78.80;;;;;;4987803;28;47338;-76
2022/10/12 23:35:14;;;;;;;2.50;1.80;;;20.10;78.80;;;;;;4985215;28;45322;-76
2022/10/12 23:37:41;;;;;;;1.88;1.60;;;20.10;78.90;;;;;;4987884;28;45528;-76
2022/10/12 23:40:09;;;;;;;3.65;2.03;;;20.10;78.70;;;;;;4987626;28;46619;-76
2022/10/12 23:42:36;;;;;;;3.25;1.90;;;20.10;78.50;;;;;;4987709;28;45282;-76
2022/10/12 23:45:03;;;;;;;3.00;1.80;;;20.10;78.90;;;;;;4987613;28;45251;-75
2022/10/12 23:47:30;;;;;;;3.65;1.95;;;20.10;78.40;;;;;;4987970;28;45269;-76
2022/10/12 23:49:56;;;;;;;2.53;1.83;;;20.10;78.40;;;;;;4989908;28;45829;-76
2022/10/12 23:52:24;;;;;;;3.53;1.83;;;20.10;78.60;;;;;;4987828;28;45192;-76
2022/10/12 23:54:51;;;;;;;2.10;1.70;;;20.10;78.60;;;;;;4987567;28;45158;-76
2022/10/12 23:57:18;;;;;;;3.08;1.80;;;20.10;78.50;;;;;;4987719;28;45152;-76
2022/10/12 23:59:45;;;;;;;2.75;1.60;;;20.10;78.40;;;;;;4987278;28;47944;-76
